Time;durP1;ratioP1;P1;durP2;ratioP2;P2;SDS_P1;SDS_P2;PMS_P1;PMS_P2;Temp;Humidity;BMP_temperature;BMP_pressure;BME280_temperature;BME280_humidity;BME280_pressure;Samples;Min_cycle;Max_cycle;Signal;HPM_P1;HPM_P2
2023/10/17 00:01:34;;;;;;;8.85;4.68;;;7.10;99.90;;;;;;5073229;28;20716;-55
2023/10/17 00:06:46;;;;;;;7.65;4.18;;;6.90;99.90;;;;;;5073346;28;20056;-55
2023/10/17 00:14:34;;;;;;;8.38;3.70;;;6.80;99.90;;;;;;5072941;28;19932;-56
2023/10/17 00:17:03;;;;;;;12.52;4.50;;;6.80;99.90;;;;;;5072939;28;20037;-54
2023/10/17 00:19:31;;;;;;;11.05;4.22;;;6.70;99.90;;;;;;5073026;28;20453;-54
2023/10/17 00:22:03;;;;;;;10.95;4.28;;;6.70;99.90;;;;;;5072793;28;20033;-55
2023/10/17 00:24:29;;;;;;;7.05;3.60;;;6.80;99.90;;;;;;5073221;28;20047;-55
2023/10/17 00:26:56;;;;;;;9.43;5.93;;;6.70;99.90;;;;;;5071956;28;20086;-54
2023/10/17 00:29:22;;;;;;;12.45;4.40;;;6.70;99.90;;;;;;5071017;28;20073;-55
2023/10/17 00:31:48;;;;;;;9.10;3.78;;;6.60;99.90;;;;;;5071100;28;20044;-54
2023/10/17 00:34:13;;;;;;;8.32;5.95;;;6.50;99.90;;;;;;5072949;28;20111;-55
2023/10/17 00:37:00;;;;;;;8.55;3.70;;;6.70;99.90;;;;;;5073084;28;20037;-55
2023/10/17 00:39:29;;;;;;;7.70;3.95;;;6.60;99.90;;;;;;5072961;28;20569;-56
2023/10/17 00:42:09;;;;;;;8.82;3.75;;;6.40;99.90;;;;;;5072936;28;20032;-56
2023/10/17 00:44:37;;;;;;;8.15;3.92;;;6.60;99.90;;;;;;5072359;28;20036;-53
2023/10/17 00:47:18;;;;;;;8.93;4.13;;;6.40;99.90;;;;;;5072820;28;20055;-55
2023/10/17 00:49:44;;;;;;;8.65;3.70;;;6.40;99.90;;;;;;5072458;28;20054;-55
2023/10/17 00:52:22;;;;;;;7.90;3.72;;;6.40;99.90;;;;;;5072619;28;20155;-55
2023/10/17 00:54:50;;;;;;;10.82;4.10;;;6.20;99.90;;;;;;5072106;28;21006;-53
2023/10/17 00:57:19;;;;;;;10.00;6.63;;;6.30;99.90;;;;;;5072983;28;20491;-56
2023/10/17 00:59:55;;;;;;;6.63;3.50;;;6.50;99.90;;;;;;5071082;28;20415;-55
2023/10/17 01:02:23;;;;;;;8.68;3.97;;;6.40;99.90;;;;;;5072686;28;20499;-56
2023/10/17 01:04:50;;;;;;;7.95;3.92;;;6.30;99.90;;;;;;5070981;28;20044;-54
2023/10/17 01:07:29;;;;;;;8.68;3.75;;;6.40;99.90;;;;;;5072193;28;20033;-54
2023/10/17 01:09:55;;;;;;;9.68;3.83;;;6.70;99.90;;;;;;5072662;28;20041;-55
2023/10/17 01:12:28;;;;;;;8.07;3.58;;;6.50;99.90;;;;;;5071892;28;20033;-55
2023/10/17 01:14:55;;;;;;;7.53;3.42;;;6.40;99.90;;;;;;5072410;28;20040;-53
2023/10/17 01:17:23;;;;;;;10.98;3.72;;;6.40;99.90;;;;;;5072140;28;20400;-53
2023/10/17 01:19:53;;;;;;;10.07;3.20;;;6.50;99.90;;;;;;5072041;28;20047;-55
2023/10/17 01:22:22;;;;;;;7.75;3.00;;;6.40;99.90;;;;;;5070422;28;20127;-55
2023/10/17 01:24:48;;;;;;;12.38;3.33;;;6.50;99.90;;;;;;5070859;28;20036;-55
2023/10/17 01:27:14;;;;;;;7.93;5.50;;;6.60;99.90;;;;;;5071521;28;20135;-53
2023/10/17 01:29:44;;;;;;;8.13;2.88;;;6.40;99.90;;;;;;5071575;28;20115;-54
2023/10/17 01:32:09;;;;;;;5.13;2.80;;;6.40;99.90;;;;;;5071384;28;20040;-55
2023/10/17 01:34:36;;;;;;;12.80;3.22;;;6.40;99.90;;;;;;5072100;28;20043;-54
2023/10/17 01:37:03;;;;;;;7.13;3.28;;;6.40;99.90;;;;;;5071720;28;20086;-55
2023/10/17 01:39:29;;;;;;;9.30;3.53;;;6.40;99.90;;;;;;5072019;28;20435;-53
2023/10/17 01:41:55;;;;;;;7.50;5.15;;;6.70;99.90;;;;;;5070149;28;20071;-56
2023/10/17 01:44:21;;;;;;;7.60;3.25;;;6.60;99.90;;;;;;5071689;28;20451;-54
2023/10/17 01:46:47;;;;;;;9.35;3.40;;;6.50;99.90;;;;;;5071450;28;20123;-54
2023/10/17 01:49:13;;;;;;;7.82;3.22;;;6.80;99.90;;;;;;5053014;28;20454;-52
2023/10/17 01:51:45;;;;;;;8.10;2.80;;;6.40;99.90;;;;;;5067616;28;20047;-54
2023/10/17 01:54:13;;;;;;;7.28;3.08;;;6.40;99.90;;;;;;5069505;28;20751;-55
2023/10/17 01:56:47;;;;;;;8.68;3.40;;;6.40;99.90;;;;;;5071451;28;20051;-55
2023/10/17 01:59:17;;;;;;;6.93;3.42;;;6.60;99.90;;;;;;5071205;28;20041;-55
2023/10/17 02:01:42;;;;;;;8.45;5.53;;;6.60;99.90;;;;;;5071534;28;20503;-54
2023/10/17 02:04:18;;;;;;;6.65;3.25;;;6.70;99.90;;;;;;5071300;28;20062;-54
2023/10/17 02:06:47;;;;;;;8.48;3.20;;;6.60;99.90;;;;;;5071450;28;20072;-54
2023/10/17 02:11:54;;;;;;;8.18;4.03;;;6.60;99.90;;;;;;5071028;28;20044;-55
2023/10/17 02:14:23;;;;;;;10.68;3.70;;;6.60;99.90;;;;;;5069382;28;20518;-55
2023/10/17 02:16:49;;;;;;;10.50;5.72;;;6.60;99.90;;;;;;5071255;28;20041;-53
2023/10/17 02:19:16;;;;;;;8.68;5.63;;;6.40;99.90;;;;;;5071314;28;20033;-55
2023/10/17 02:21:43;;;;;;;7.03;3.25;;;6.40;99.90;;;;;;5070448;28;20043;-55
2023/10/17 02:24:10;;;;;;;6.35;3.30;;;6.30;99.90;;;;;;5069530;28;20040;-53
2023/10/17 02:26:42;;;;;;;10.52;3.50;;;6.50;99.90;;;;;;5071067;28;20047;-55
2023/10/17 02:29:11;;;;;;;7.53;3.47;;;6.30;99.90;;;;;;5071048;28;20083;-55
2023/10/17 02:31:40;;;;;;;8.90;3.83;;;6.40;99.90;;;;;;5070544;28;20441;-53
2023/10/17 02:34:09;;;;;;;9.43;3.80;;;6.30;99.90;;;;;;5070512;28;20114;-55
2023/10/17 02:36:35;;;;;;;7.88;3.55;;;6.30;99.90;;;;;;5070759;28;20063;-54
2023/10/17 02:39:01;;;;;;;11.38;3.88;;;6.40;99.90;;;;;;5071104;28;20040;-54
2023/10/17 02:41:31;;;;;;;8.38;6.22;;;6.30;99.90;;;;;;5069170;28;20039;-53
2023/10/17 02:43:58;;;;;;;9.98;3.75;;;6.20;99.90;;;;;;5070892;28;20399;-55
2023/10/17 02:46:28;;;;;;;8.80;3.65;;;6.20;99.90;;;;;;5071171;28;20084;-53
2023/10/17 02:48:57;;;;;;;8.60;4.10;;;6.20;99.90;;;;;;5070394;28;20076;-54
2023/10/17 02:53:53;;;;;;;12.65;4.00;;;6.10;99.90;;;;;;5069903;28;20469;-55
2023/10/17 02:56:22;;;;;;;8.85;3.58;;;6.30;99.90;;;;;;5071272;28;20111;-55
2023/10/17 02:59:04;;;;;;;7.10;3.85;;;6.00;99.90;;;;;;5070463;28;20040;-55
2023/10/17 03:01:36;;;;;;;12.35;4.10;;;6.40;99.90;;;;;;5070549;28;20040;-55
2023/10/17 03:04:07;;;;;;;8.80;3.45;;;6.20;99.90;;;;;;5070349;28;20044;-56
2023/10/17 03:06:38;;;;;;;7.53;3.35;;;6.30;99.90;;;;;;5068088;28;20052;-54
2023/10/17 03:15:18;;;;;;;6.85;3.05;;;6.00;99.90;;;;;;5069984;28;20166;-53
2023/10/17 03:17:27;;;;;;;9.43;3.20;;;6.20;99.90;;;;;;5070067;28;20032;-54
2023/10/17 03:19:53;;;;;;;8.43;3.05;;;6.10;99.90;;;;;;5069868;28;20052;-54
2023/10/17 03:22:26;;;;;;;8.93;3.28;;;6.10;99.90;;;;;;5069778;28;20578;-55
2023/10/17 03:25:01;;;;;;;5.75;2.97;;;6.00;99.90;;;;;;5070418;28;20045;-53
2023/10/17 03:27:37;;;;;;;10.52;3.72;;;5.80;99.90;;;;;;5070432;28;20090;-55
2023/10/17 03:30:14;;;;;;;6.95;3.15;;;5.80;99.90;;;;;;5070477;28;20487;-55
2023/10/17 03:35:24;;;;;;;9.90;3.40;;;5.80;99.90;;;;;;5071431;28;20072;-54
2023/10/17 03:37:50;;;;;;;8.55;4.47;;;5.80;99.90;;;;;;5073806;28;20036;-54
2023/10/17 03:40:19;;;;;;;7.22;3.33;;;6.00;99.90;;;;;;5074232;28;20078;-54
2023/10/17 03:42:53;;;;;;;6.30;2.90;;;5.90;99.90;;;;;;5073817;28;20036;-54
2023/10/17 03:47:56;;;;;;;9.00;5.35;;;5.60;99.90;;;;;;5073995;28;20403;-54
2023/10/17 03:53:29;;;;;;;6.70;3.53;;;5.80;99.90;;;;;;5063927;28;20101;-54
2023/10/17 03:56:00;;;;;;;8.27;3.95;;;5.60;99.90;;;;;;5073088;28;20036;-53
2023/10/17 04:01:00;;;;;;;9.25;3.33;;;5.80;99.90;;;;;;5073182;28;20048;-53
2023/10/17 04:03:30;;;;;;;8.40;3.80;;;5.60;99.90;;;;;;5073695;28;20043;-53
2023/10/17 04:08:36;;;;;;;8.02;3.53;;;5.80;99.90;;;;;;5073420;28;20453;-53
2023/10/17 04:13:49;;;;;;;;;;;5.50;99.90;;;;;;5073921;28;20048;-55
2023/10/17 04:16:21;;;;;;;6.32;3.10;;;5.50;99.90;;;;;;5072977;28;19999;-54
2023/10/17 04:18:48;;;;;;;6.63;3.38;;;5.40;99.90;;;;;;5072047;28;20044;-55
2023/10/17 04:24:05;;;;;;;;;;;5.60;99.90;;;;;;5072683;28;20105;-55
2023/10/17 04:26:34;;;;;;;7.90;3.20;;;5.50;99.90;;;;;;5073405;28;20332;-53
2023/10/17 04:29:11;;;;;;;7.25;3.45;;;5.30;99.90;;;;;;5072814;28;20044;-55
2023/10/17 04:31:38;;;;;;;8.10;3.50;;;5.40;99.90;;;;;;5073078;28;20028;-56
2023/10/17 04:34:08;;;;;;;6.05;3.38;;;5.50;99.90;;;;;;5071759;28;20047;-55
2023/10/17 04:36:37;;;;;;;6.22;3.10;;;5.30;99.90;;;;;;5071682;28;20049;-55
2023/10/17 04:39:12;;;;;;;7.93;3.30;;;5.50;99.90;;;;;;5071812;28;20070;-55
2023/10/17 04:44:33;;;;;;;6.65;3.28;;;5.30;99.90;;;;;;5072199;28;20099;-54
2023/10/17 04:49:31;;;;;;;7.78;3.05;;;5.30;99.90;;;;;;5072601;28;20071;-54
2023/10/17 04:52:06;;;;;;;7.63;3.60;;;5.00;99.90;;;;;;5072416;28;20043;-52
2023/10/17 04:57:09;;;;;;;9.40;4.03;;;5.20;99.90;;;;;;5073044;28;20458;-52
2023/10/17 05:07:28;;;;;;;7.60;3.45;;;5.10;99.90;;;;;;5072211;28;20043;-55
2023/10/17 06:19:15;;;;;;;11.88;3.50;;;4.60;99.90;;;;;;5071223;28;20315;-54
2023/10/17 06:34:47;;;;;;;7.40;3.55;;;4.80;99.90;;;;;;5071012;28;20039;-54
2023/10/17 06:37:19;;;;;;;8.55;4.18;;;4.90;99.90;;;;;;5066540;28;20044;-54
2023/10/17 06:39:49;;;;;;;9.25;4.22;;;5.00;99.90;;;;;;5070768;28;20039;-54
2023/10/17 06:42:15;;;;;;;8.82;4.22;;;5.00;99.90;;;;;;5070722;28;20040;-54
2023/10/17 06:44:53;;;;;;;9.02;4.32;;;5.10;99.90;;;;;;5070493;28;20153;-54
2023/10/17 06:47:31;;;;;;;8.70;4.55;;;5.10;99.90;;;;;;5070709;28;20426;-54
2023/10/17 06:55:21;;;;;;;12.00;5.00;;;5.00;99.90;;;;;;5059341;28;20115;-55
2023/10/17 06:57:50;;;;;;;11.77;5.18;;;4.90;99.90;;;;;;5059605;28;20037;-54
2023/10/17 07:00:42;;;;;;;14.43;5.47;;;5.30;99.90;;;;;;5058626;28;20083;-53
2023/10/17 07:03:09;;;;;;;9.45;4.50;;;5.30;99.90;;;;;;5059114;28;20040;-54
2023/10/17 07:05:36;;;;;;;9.20;4.97;;;5.30;99.90;;;;;;5060429;28;20503;-54
2023/10/17 07:08:02;;;;;;;14.70;9.52;;;5.00;99.90;;;;;;5058437;28;20036;-53
2023/10/17 07:13:35;;;;;;;13.07;5.45;;;5.10;99.90;;;;;;5064480;28;20052;-54
2023/10/17 07:16:11;;;;;;;9.07;5.25;;;5.50;99.90;;;;;;5063473;28;20043;-54
2023/10/17 07:21:16;;;;;;;10.73;5.68;;;5.50;99.90;;;;;;5064640;28;20574;-54
2023/10/17 07:23:44;;;;;;;13.88;5.35;;;5.60;99.90;;;;;;5063555;28;20036;-54
2023/10/17 07:26:17;;;;;;;12.85;6.47;;;5.60;99.90;;;;;;5061191;28;20552;-54
2023/10/17 07:28:50;;;;;;;14.98;5.90;;;5.70;99.90;;;;;;5064062;28;20109;-54
2023/10/17 07:31:16;;;;;;;11.30;6.00;;;5.70;99.90;;;;;;5062381;28;20037;-53
2023/10/17 07:33:43;;;;;;;14.32;6.03;;;6.00;99.90;;;;;;5063316;28;20044;-55
2023/10/17 07:38:45;;;;;;;14.55;7.13;;;5.80;99.90;;;;;;5060010;28;20171;-55
2023/10/17 07:41:14;;;;;;;14.63;6.45;;;6.10;99.90;;;;;;5058209;28;20036;-55
2023/10/17 07:43:46;;;;;;;14.52;7.65;;;5.90;99.90;;;;;;5060482;28;20142;-55
2023/10/17 07:46:26;;;;;;;13.18;7.75;;;6.10;99.90;;;;;;5062699;28;20033;-56
2023/10/17 07:48:52;;;;;;;15.88;8.02;;;5.80;99.90;;;;;;5059508;28;20052;-55
2023/10/17 07:51:18;;;;;;;16.98;8.73;;;6.30;99.90;;;;;;5058772;28;20032;-55
2023/10/17 07:53:47;;;;;;;18.48;9.18;;;6.30;99.90;;;;;;5057564;28;20063;-56
2023/10/17 07:56:20;;;;;;;15.75;8.98;;;6.40;99.90;;;;;;5055588;28;20874;-55
2023/10/17 07:59:04;;;;;;;18.20;8.63;;;6.60;99.90;;;;;;5060378;28;20063;-56
2023/10/17 08:01:42;;;;;;;13.85;8.27;;;6.50;99.90;;;;;;5059786;28;20033;-54
2023/10/17 08:04:17;;;;;;;13.13;7.32;;;6.60;99.90;;;;;;5058989;28;20492;-53
2023/10/17 08:06:44;;;;;;;15.27;7.70;;;7.00;99.90;;;;;;5056244;28;20396;-54
2023/10/17 08:11:50;;;;;;;14.38;6.45;;;6.90;99.90;;;;;;5058053;28;20045;-55
2023/10/17 08:14:18;;;;;;;15.63;6.80;;;7.30;99.90;;;;;;5057859;28;20048;-53
2023/10/17 08:16:44;;;;;;;12.13;5.90;;;7.30;99.90;;;;;;5057100;28;20076;-57
2023/10/17 08:19:13;;;;;;;11.20;5.90;;;7.40;99.90;;;;;;5056661;28;20033;-54
2023/10/17 08:21:59;;;;;;;12.40;5.15;;;7.30;99.90;;;;;;5057177;28;20033;-55
2023/10/17 08:24:51;;;;;;;8.90;5.20;;;7.50;99.90;;;;;;5058724;28;20040;-55
2023/10/17 08:27:17;;;;;;;12.40;4.80;;;7.60;99.90;;;;;;5057452;28;20048;-55
2023/10/17 08:29:45;;;;;;;11.20;4.45;;;7.80;99.90;;;;;;5057987;28;20135;-55
2023/10/17 08:35:03;;;;;;;10.20;4.93;;;7.90;99.90;;;;;;5042014;28;20037;-55
2023/10/17 08:37:40;;;;;;;7.18;4.10;;;8.00;99.90;;;;;;5068896;28;20125;-55
2023/10/17 08:42:51;;;;;;;12.05;3.88;;;8.20;99.90;;;;;;5070346;28;20044;-56
2023/10/17 08:45:18;;;;;;;9.90;3.67;;;8.40;99.90;;;;;;5078286;28;20036;-55
2023/10/17 08:47:44;;;;;;;6.97;3.47;;;8.50;99.90;;;;;;5076634;28;20494;-57
2023/10/17 08:50:09;;;;;;;7.82;3.53;;;8.50;99.90;;;;;;5063994;28;20040;-55
2023/10/17 08:52:37;;;;;;;8.27;3.15;;;8.60;99.90;;;;;;5064101;28;20041;-56
2023/10/17 08:55:04;;;;;;;6.97;3.05;;;8.60;99.90;;;;;;5049774;28;20070;-55
2023/10/17 08:57:31;;;;;;;12.60;4.57;;;8.70;99.90;;;;;;5066605;28;20472;-54
2023/10/17 09:00:13;;;;;;;6.80;3.10;;;8.80;99.90;;;;;;5064987;28;21730;-56
2023/10/17 09:02:48;;;;;;;10.13;3.72;;;8.80;99.90;;;;;;5062172;28;20160;-55
2023/10/17 09:05:18;;;;;;;6.90;3.03;;;9.00;99.90;;;;;;5064305;28;20447;-56
2023/10/17 09:07:55;;;;;;;5.28;2.60;;;9.10;99.90;;;;;;5063463;28;20107;-55
2023/10/17 09:10:37;;;;;;;5.82;2.88;;;9.20;99.90;;;;;;5062565;28;20500;-56
2023/10/17 09:15:57;;;;;;;6.07;2.78;;;9.30;99.90;;;;;;5064382;28;20149;-57
2023/10/17 09:18:28;;;;;;;7.50;2.58;;;9.50;99.90;;;;;;5048927;28;20191;-56
2023/10/17 09:21:03;;;;;;;5.60;2.50;;;9.60;99.90;;;;;;5063331;28;20045;-56
2023/10/17 09:23:30;;;;;;;5.63;2.60;;;9.60;99.90;;;;;;5062898;28;20404;-55
2023/10/17 09:26:07;;;;;;;7.88;2.75;;;9.70;99.90;;;;;;5062749;28;20112;-54
2023/10/17 09:28:42;;;;;;;6.50;2.53;;;9.90;99.90;;;;;;5063422;28;20040;-56
2023/10/17 09:31:09;;;;;;;10.57;3.05;;;9.90;99.90;;;;;;5064167;28;20040;-56
2023/10/17 09:33:43;;;;;;;6.00;2.60;;;10.00;99.90;;;;;;5064535;28;20033;-56
2023/10/17 09:36:09;;;;;;;5.07;1.77;;;10.00;99.90;;;;;;5064944;28;20040;-55
2023/10/17 09:38:41;;;;;;;8.05;2.25;;;10.10;99.90;;;;;;5062902;28;20044;-53
2023/10/17 09:41:08;;;;;;;6.07;2.00;;;10.10;99.90;;;;;;5062188;28;23870;-54
2023/10/17 09:43:37;;;;;;;8.30;2.17;;;10.20;99.90;;;;;;5060183;28;20032;-55
2023/10/17 09:46:09;;;;;;;4.90;2.10;;;10.20;99.90;;;;;;5064944;28;20424;-54
2023/10/17 09:48:44;;;;;;;5.85;2.60;;;10.20;99.90;;;;;;5060630;28;20510;-55
2023/10/17 09:51:14;;;;;;;5.95;2.10;;;10.30;99.90;;;;;;5061008;28;20049;-56
2023/10/17 09:53:43;;;;;;;5.13;2.45;;;10.30;99.90;;;;;;5047781;28;20036;-55
2023/10/17 09:56:22;;;;;;;6.28;1.58;;;10.40;99.90;;;;;;5065027;28;20149;-54
2023/10/17 09:58:51;;;;;;;3.50;1.20;;;10.40;99.90;;;;;;5063665;28;20040;-55
2023/10/17 10:01:27;;;;;;;5.53;1.30;;;10.50;99.90;;;;;;5061248;28;20117;-55
2023/10/17 10:04:01;;;;;;;5.05;1.70;;;10.50;99.90;;;;;;5064699;28;20098;-55
2023/10/17 10:06:34;;;;;;;;;;;10.60;99.90;;;;;;5065044;28;20063;-56
2023/10/17 10:09:14;;;;;;;6.80;1.40;;;10.60;99.90;;;;;;5063348;28;19982;-53
2023/10/17 10:11:52;;;;;;;6.63;1.50;;;10.70;99.90;;;;;;5064077;28;20783;-56
2023/10/17 10:14:23;;;;;;;7.28;1.40;;;10.90;99.90;;;;;;5065103;28;20033;-55
2023/10/17 10:16:49;;;;;;;6.28;1.10;;;11.10;99.90;;;;;;5060900;28;20071;-56
2023/10/17 10:19:19;;;;;;;4.30;1.50;;;11.40;99.90;;;;;;5064624;28;20062;-56
2023/10/17 10:21:59;;;;;;;3.13;0.90;;;11.60;99.90;;;;;;5063974;28;20051;-56
2023/10/17 10:24:31;;;;;;;3.83;1.00;;;11.80;99.90;;;;;;5063571;28;20038;-56
2023/10/17 10:27:24;;;;;;;5.40;1.30;;;11.90;99.90;;;;;;5064567;28;20127;-56
2023/10/17 10:30:17;;;;;;;3.30;1.17;;;12.00;99.90;;;;;;5059026;28;20048;-56
2023/10/17 10:32:44;;;;;;;3.90;1.00;;;12.00;99.90;;;;;;5067032;28;20068;-55
2023/10/17 10:35:11;;;;;;;4.20;1.00;;;12.00;99.90;;;;;;5067580;28;20433;-56
2023/10/17 10:37:54;;;;;;;3.13;1.13;;;12.00;99.90;;;;;;5064290;28;20120;-53
2023/10/17 10:40:26;;;;;;;6.40;1.38;;;12.00;99.90;;;;;;5066484;28;20032;-53
2023/10/17 10:43:01;;;;;;;7.25;1.30;;;12.10;99.90;;;;;;5068226;28;20144;-56
2023/10/17 10:45:55;;;;;;;2.83;0.85;;;12.10;99.90;;;;;;5061877;28;20094;-56
2023/10/17 10:48:21;;;;;;;3.75;1.20;;;12.10;99.90;;;;;;5064964;28;20044;-56
2023/10/17 10:50:55;;;;;;;6.53;1.17;;;12.20;99.90;;;;;;5065043;28;20047;-56
2023/10/17 10:53:29;;;;;;;4.97;1.00;;;12.20;99.90;;;;;;5062134;28;20441;-56
2023/10/17 10:56:02;;;;;;;4.60;1.10;;;12.30;99.90;;;;;;5067487;28;20044;-56
2023/10/17 10:58:42;;;;;;;7.63;0.90;;;12.40;99.90;;;;;;5066729;28;20060;-55
2023/10/17 11:01:07;;;;;;;3.70;0.80;;;12.50;99.90;;;;;;5066612;28;20028;-56
2023/10/17 11:03:40;;;;;;;4.50;0.93;;;12.50;99.90;;;;;;5059509;28;20340;-56
2023/10/17 11:06:08;;;;;;;4.47;1.00;;;12.60;99.90;;;;;;5066590;28;20032;-54
2023/10/17 11:08:37;;;;;;;3.78;1.02;;;12.70;99.90;;;;;;5061808;28;20040;-55
2023/10/17 11:11:05;;;;;;;6.57;1.20;;;12.90;99.90;;;;;;5064710;28;20043;-55
2023/10/17 11:13:32;;;;;;;3.42;0.80;;;13.00;99.90;;;;;;5066271;28;20083;-57
2023/10/17 11:15:58;;;;;;;2.50;0.63;;;13.20;99.90;;;;;;5067332;28;20040;-56
2023/10/17 11:18:24;;;;;;;6.13;1.45;;;13.30;99.90;;;;;;5064792;28;20066;-55
2023/10/17 11:20:55;;;;;;;3.67;0.93;;;13.40;99.90;;;;;;5068814;28;20032;-57
2023/10/17 11:23:26;;;;;;;7.43;0.80;;;13.60;99.90;;;;;;5067979;28;20062;-56
2023/10/17 11:25:53;;;;;;;7.00;1.35;;;13.60;99.90;;;;;;5068662;28;20036;-56
2023/10/17 11:28:19;;;;;;;5.88;1.23;;;13.70;99.90;;;;;;5068891;28;20062;-56
2023/10/17 11:30:48;;;;;;;2.72;0.68;;;13.80;99.90;;;;;;5070100;28;20051;-56
2023/10/17 11:33:16;;;;;;;4.32;1.10;;;14.00;99.90;;;;;;5067323;28;20402;-57
2023/10/17 11:35:51;;;;;;;3.13;1.05;;;14.10;99.90;;;;;;5065906;28;20365;-56
2023/10/17 11:38:34;;;;;;;5.00;0.90;;;14.20;99.90;;;;;;5068509;28;20121;-56
2023/10/17 11:41:06;;;;;;;3.75;0.80;;;14.30;99.90;;;;;;5068570;28;20040;-56
2023/10/17 11:43:54;;;;;;;2.55;0.80;;;14.30;99.90;;;;;;5070324;28;20117;-55
2023/10/17 11:46:29;;;;;;;3.45;0.82;;;14.40;99.90;;;;;;5070674;28;20033;-56
2023/10/17 11:49:20;;;;;;;3.13;0.80;;;14.40;99.90;;;;;;5070823;28;20371;-56
2023/10/17 11:52:10;;;;;;;4.15;0.90;;;14.40;99.90;;;;;;5068952;28;20305;-56
2023/10/17 11:55:00;;;;;;;4.13;0.85;;;14.50;99.90;;;;;;5062140;28;20052;-56
2023/10/17 11:57:27;;;;;;;4.80;1.08;;;14.60;99.90;;;;;;5070830;28;20541;-57
2023/10/17 12:00:07;;;;;;;1.90;0.80;;;14.60;99.90;;;;;;5069880;28;20033;-55
2023/10/17 12:02:33;;;;;;;2.50;0.80;;;14.70;99.90;;;;;;5070190;28;20111;-56
2023/10/17 12:05:01;;;;;;;5.38;1.10;;;14.70;99.90;;;;;;5068976;28;20048;-55
2023/10/17 12:07:26;;;;;;;3.47;0.70;;;14.70;99.90;;;;;;5070336;28;20445;-55
2023/10/17 12:09:53;;;;;;;5.55;1.27;;;14.80;99.90;;;;;;5070690;28;20032;-56
2023/10/17 12:12:19;;;;;;;2.75;0.77;;;14.90;99.90;;;;;;5070280;28;20119;-56
2023/10/17 12:14:45;;;;;;;3.45;0.70;;;15.00;99.90;;;;;;5070218;28;20132;-56
2023/10/17 12:17:18;;;;;;;5.55;1.00;;;15.00;99.90;;;;;;5070096;28;20043;-55
2023/10/17 12:19:44;;;;;;;4.28;0.95;;;15.10;99.90;;;;;;5070241;28;20119;-56
2023/10/17 12:22:09;;;;;;;4.40;1.00;;;15.20;99.90;;;;;;5069962;28;20459;-55
2023/10/17 12:24:35;;;;;;;4.00;1.10;;;15.30;99.90;;;;;;5070366;28;20090;-56
2023/10/17 12:27:01;;;;;;;3.45;1.00;;;15.40;99.90;;;;;;5073125;28;20079;-56
2023/10/17 12:29:29;;;;;;;5.22;1.02;;;15.40;99.90;;;;;;5074050;28;20116;-57
2023/10/17 12:31:57;;;;;;;6.30;0.90;;;15.50;99.90;;;;;;5072635;28;20484;-56
2023/10/17 12:34:23;;;;;;;3.55;0.93;;;15.60;99.90;;;;;;5070672;28;20476;-56
2023/10/17 12:36:49;;;;;;;2.70;0.70;;;15.70;99.90;;;;;;5061455;28;20045;-57
2023/10/17 12:39:16;;;;;;;3.63;1.00;;;15.80;99.90;;;;;;5072648;28;20055;-57
2023/10/17 12:41:45;;;;;;;5.80;0.90;;;15.70;99.90;;;;;;5071990;28;20110;-56
2023/10/17 12:44:12;;;;;;;2.55;0.60;;;15.80;99.90;;;;;;5072151;28;20447;-55
2023/10/17 12:46:38;;;;;;;5.28;0.90;;;15.80;99.90;;;;;;5073333;28;20447;-57
2023/10/17 12:49:06;;;;;;;3.92;0.70;;;15.80;99.90;;;;;;5071943;28;20036;-57
2023/10/17 12:51:32;;;;;;;4.30;0.90;;;15.80;99.90;;;;;;5073664;28;20116;-56
2023/10/17 12:53:58;;;;;;;4.35;0.95;;;15.70;99.90;;;;;;5073280;28;20081;-56
2023/10/17 12:56:27;;;;;;;3.30;0.80;;;15.70;99.90;;;;;;5073362;28;20472;-57
2023/10/17 12:58:52;;;;;;;4.60;0.80;;;15.70;99.90;;;;;;5073755;28;20113;-56
2023/10/17 13:01:21;;;;;;;3.25;0.70;;;15.70;99.90;;;;;;5073576;28;20115;-56
2023/10/17 13:03:53;;;;;;;2.72;0.80;;;15.70;99.90;;;;;;5072663;28;20607;-56
2023/10/17 13:06:20;;;;;;;3.53;1.08;;;15.70;99.90;;;;;;5056178;28;20531;-55
2023/10/17 13:08:47;;;;;;;4.13;0.90;;;15.80;99.90;;;;;;5073571;28;20414;-54
2023/10/17 13:11:12;;;;;;;5.28;0.90;;;15.70;99.90;;;;;;5073330;28;20062;-56
2023/10/17 13:13:39;;;;;;;3.95;1.15;;;15.70;99.90;;;;;;5071589;28;20041;-57
2023/10/17 13:16:05;;;;;;;4.65;0.90;;;15.90;99.90;;;;;;5073049;28;20084;-57
2023/10/17 13:18:35;;;;;;;4.70;1.00;;;16.00;99.90;;;;;;5072462;28;20052;-56
2023/10/17 13:21:06;;;;;;;3.95;1.17;;;16.10;99.90;;;;;;5072117;28;20032;-56
2023/10/17 13:23:32;;;;;;;2.53;1.00;;;16.20;99.90;;;;;;5072460;28;20040;-55
2023/10/17 13:25:58;;;;;;;5.25;1.25;;;16.20;99.90;;;;;;5072790;28;20039;-56
2023/10/17 13:28:24;;;;;;;5.22;1.50;;;16.30;99.90;;;;;;5073041;28;20036;-56
2023/10/17 13:30:50;;;;;;;5.00;1.00;;;16.30;99.90;;;;;;5073104;28;20094;-57
2023/10/17 13:33:21;;;;;;;3.20;1.05;;;16.40;99.90;;;;;;5072630;28;20044;-55
2023/10/17 13:35:46;;;;;;;4.82;1.50;;;16.30;99.90;;;;;;5072413;28;20028;-57
2023/10/17 13:38:13;;;;;;;3.95;0.98;;;16.10;99.90;;;;;;5072398;28;20079;-56
2023/10/17 13:40:39;;;;;;;4.57;0.90;;;16.00;99.90;;;;;;5072195;28;20086;-56
2023/10/17 13:43:05;;;;;;;5.55;1.15;;;16.00;99.90;;;;;;5072602;28;20033;-55
2023/10/17 13:45:39;;;;;;;3.20;0.90;;;16.00;99.90;;;;;;5072286;28;20040;-56
2023/10/17 13:48:06;;;;;;;3.10;1.00;;;16.00;99.90;;;;;;5072513;28;20052;-55
2023/10/17 13:50:31;;;;;;;4.72;1.10;;;15.90;99.90;;;;;;5072135;28;20040;-55
2023/10/17 13:53:06;;;;;;;5.50;1.08;;;15.90;99.90;;;;;;5071980;28;20055;-57
2023/10/17 13:55:42;;;;;;;3.03;1.17;;;15.70;99.90;;;;;;5072035;28;20044;-56
2023/10/17 13:58:07;;;;;;;4.72;1.17;;;15.50;99.90;;;;;;5072482;28;20090;-57
2023/10/17 14:00:43;;;;;;;3.30;1.20;;;15.30;99.90;;;;;;5072281;28;20515;-56
2023/10/17 14:03:12;;;;;;;4.15;1.00;;;15.10;99.90;;;;;;5072219;28;20052;-55
2023/10/17 14:05:44;;;;;;;3.58;1.27;;;15.00;99.90;;;;;;5072107;28;20052;-55
2023/10/17 14:08:13;;;;;;;3.47;0.98;;;14.80;99.90;;;;;;5072330;28;20489;-55
2023/10/17 14:10:48;;;;;;;4.97;1.10;;;15.00;99.90;;;;;;5071773;28;20051;-57
2023/10/17 14:13:16;;;;;;;3.65;0.98;;;14.50;99.90;;;;;;5071843;28;20051;-57
2023/10/17 14:15:42;;;;;;;5.10;1.30;;;14.40;99.90;;;;;;5072192;28;20036;-56
2023/10/17 14:18:14;;;;;;;4.00;1.52;;;14.30;99.90;;;;;;5071731;28;20036;-56
2023/10/17 14:26:10;;;;;;;;;;;14.00;99.90;;;;;;5071637;28;20039;-56
2023/10/17 14:28:36;;;;;;;4.18;1.10;;;13.90;99.90;;;;;;5071366;28;19916;-55
2023/10/17 14:31:03;;;;;;;5.15;1.10;;;13.80;99.90;;;;;;5071244;28;20040;-55
2023/10/17 14:33:34;;;;;;;4.50;1.20;;;13.70;99.90;;;;;;5069923;28;20041;-55
2023/10/17 14:36:04;;;;;;;5.07;1.30;;;13.70;99.90;;;;;;5071876;28;20048;-55
2023/10/17 14:38:32;;;;;;;3.92;1.20;;;13.60;99.90;;;;;;5071226;28;20056;-56
2023/10/17 14:40:58;;;;;;;4.32;1.20;;;13.60;99.90;;;;;;5070410;28;20123;-55
2023/10/17 14:43:27;;;;;;;3.00;1.10;;;13.60;99.90;;;;;;5071051;28;20040;-57
2023/10/17 14:45:53;;;;;;;6.57;1.30;;;13.50;99.90;;;;;;5071030;28;20488;-56
2023/10/17 14:48:20;;;;;;;4.45;1.40;;;13.40;99.90;;;;;;5070663;28;20079;-55
2023/10/17 14:50:46;;;;;;;7.30;1.40;;;13.40;99.90;;;;;;5071461;28;20432;-55
2023/10/17 14:53:11;;;;;;;3.72;1.20;;;13.30;99.90;;;;;;5071004;28;20040;-56
2023/10/17 14:55:38;;;;;;;4.30;1.00;;;13.20;99.90;;;;;;5071396;28;20047;-55
2023/10/17 14:58:06;;;;;;;4.60;1.08;;;13.20;99.90;;;;;;5069545;28;20056;-53
2023/10/17 15:00:34;;;;;;;3.88;1.48;;;13.10;99.90;;;;;;5071408;28;20369;-54
2023/10/17 15:03:00;;;;;;;4.30;1.17;;;13.00;99.90;;;;;;5070740;28;20483;-53
2023/10/17 15:05:26;;;;;;;5.15;1.30;;;13.10;99.90;;;;;;5070412;28;20037;-52
2023/10/17 15:07:52;;;;;;;5.70;1.45;;;13.00;99.90;;;;;;5068671;28;20487;-53
2023/10/17 15:10:19;;;;;;;5.07;0.90;;;13.00;99.90;;;;;;5069259;28;20047;-53
2023/10/17 15:12:45;;;;;;;3.13;0.90;;;13.00;99.90;;;;;;5069933;28;20044;-52
2023/10/17 15:15:13;;;;;;;4.75;1.23;;;12.90;99.90;;;;;;5070145;28;20074;-53
2023/10/17 15:17:41;;;;;;;4.32;1.30;;;12.90;99.90;;;;;;5069364;28;20077;-52
2023/10/17 15:20:11;;;;;;;4.20;0.98;;;12.90;99.90;;;;;;5070500;28;20047;-53
2023/10/17 15:22:43;;;;;;;7.53;1.20;;;12.90;99.90;;;;;;5069530;28;20040;-52
2023/10/17 15:25:13;;;;;;;4.32;0.80;;;12.80;99.90;;;;;;5070117;28;20044;-53
2023/10/17 15:27:45;;;;;;;4.57;1.10;;;12.80;99.90;;;;;;5070081;28;20056;-53
2023/10/17 15:30:15;;;;;;;4.57;0.85;;;12.80;99.90;;;;;;5069306;28;20036;-53
2023/10/17 15:32:44;;;;;;;3.47;1.20;;;12.70;99.90;;;;;;5070991;28;20135;-54
2023/10/17 15:35:14;;;;;;;5.63;1.50;;;12.70;99.90;;;;;;5070036;28;20046;-53
2023/10/17 15:37:47;;;;;;;5.40;0.90;;;12.70;99.90;;;;;;5070725;28;20122;-54
2023/10/17 15:40:19;;;;;;;3.65;0.90;;;12.70;99.90;;;;;;5070950;28;20125;-52
2023/10/17 15:42:49;;;;;;;4.63;1.30;;;12.60;99.90;;;;;;5070919;28;20043;-53
2023/10/17 15:45:16;;;;;;;3.15;0.90;;;12.60;99.90;;;;;;5064945;28;20487;-50
2023/10/17 15:47:43;;;;;;;3.65;1.30;;;12.50;99.90;;;;;;5070456;28;20044;-53
2023/10/17 15:50:19;;;;;;;4.82;1.42;;;12.50;99.90;;;;;;5070718;28;20042;-55
2023/10/17 15:52:45;;;;;;;2.88;0.88;;;12.40;99.90;;;;;;5070864;28;20044;-55